Olovjannaja, Russia
Current Conditions -  °F | °C
As of 8:00 AM on Friday 19 Dec 2014 (Local Time) from UIAA Reporting Station
Scattered Clouds Scattered Clouds  
Wind Chill: -22°   Ceiling: Unl
Heat Index: -17°   Visibility: 6mi
Dew Point: -20°   Wind: 4mph
Humidity: 78%   Direction: 130°SE
Pressure: 30.09"   Gusts: NA
Location:  50.95°N, 115.57°E
Report Text: UIAA 182300Z 13002MPS 090V160 9999 SCT100 M17/M20 Q1019 NOSIGRMK QFE705 29CLRD70
Loading
Personal Weather Stations






























Interactive Weather Map New forecast layout! Learn more

10-Day Weather Forecast

Advertisements
Track Severe Weather on mobile